createdAt,value
2022-09-25T00:00:17.099Z,14.00
2022-09-25T00:02:48.677Z,14.10
2022-09-25T00:05:19.719Z,14.20
2022-09-25T00:07:50.387Z,14.20
2022-09-25T00:10:20.790Z,14.20
2022-09-25T00:12:50.890Z,14.30
2022-09-25T00:15:21.724Z,14.40
2022-09-25T00:17:52.792Z,14.50
2022-09-25T00:20:24.192Z,14.50
2022-09-25T00:22:56.376Z,14.60
2022-09-25T00:25:29.489Z,14.60
2022-09-25T00:28:00.386Z,14.50
2022-09-25T00:30:31.079Z,14.50
2022-09-25T00:33:01.285Z,14.60
2022-09-25T00:35:31.456Z,14.70
2022-09-25T00:38:01.555Z,14.90
2022-09-25T00:40:31.754Z,15.00
2022-09-25T00:43:01.988Z,15.10
2022-09-25T00:45:32.260Z,15.20
2022-09-25T00:48:08.295Z,15.20
2022-09-25T00:50:58.467Z,15.30
2022-09-25T00:53:36.524Z,15.40
2022-09-25T00:56:09.551Z,15.50
2022-09-25T00:58:42.244Z,15.50
2022-09-25T01:01:13.226Z,15.50
2022-09-25T01:03:48.007Z,15.50
2022-09-25T01:06:20.382Z,15.60
2022-09-25T01:08:51.508Z,15.80
2022-09-25T01:11:21.614Z,15.90
2022-09-25T01:13:53.170Z,15.90
2022-09-25T01:16:49.055Z,16.00
2022-09-25T01:19:47.898Z,16.10
2022-09-25T01:22:34.216Z,16.20
2022-09-25T01:25:28.691Z,16.20
2022-09-25T01:28:23.258Z,16.10
2022-09-25T01:31:00.161Z,16.20
2022-09-25T01:33:45.698Z,16.30
2022-09-25T01:36:31.692Z,16.30
2022-09-25T01:39:23.036Z,16.30
2022-09-25T01:42:16.443Z,16.40
2022-09-25T01:44:54.719Z,16.50
2022-09-25T01:47:30.851Z,16.60
2022-09-25T01:50:12.496Z,16.70
2022-09-25T01:52:52.465Z,16.70
2022-09-25T01:55:28.355Z,16.80
2022-09-25T01:58:25.845Z,16.90
2022-09-25T02:01:11.996Z,17.00
2022-09-25T02:03:51.983Z,17.20
2022-09-25T02:06:24.458Z,17.20
2022-09-25T02:09:09.129Z,17.20
2022-09-25T02:11:45.892Z,17.20
2022-09-25T02:14:23.839Z,17.20
2022-09-25T02:16:58.379Z,17.10
2022-09-25T02:19:47.381Z,17.20
2022-09-25T02:22:27.213Z,17.30
2022-09-25T02:25:13.247Z,17.30
2022-09-25T02:27:43.532Z,17.40
2022-09-25T02:30:14.232Z,17.40
2022-09-25T02:32:44.642Z,17.50
2022-09-25T02:35:15.170Z,17.50
2022-09-25T02:37:46.053Z,17.60
2022-09-25T02:40:16.926Z,17.60
2022-09-25T02:43:14.911Z,17.70
2022-09-25T02:46:22.108Z,17.80
2022-09-25T02:49:22.870Z,17.80
2022-09-25T02:52:08.367Z,17.70
2022-09-25T02:55:03.373Z,17.70
2022-09-25T02:57:47.899Z,17.80
2022-09-25T03:00:18.857Z,17.80
2022-09-25T03:02:52.666Z,17.80
2022-09-25T03:05:24.797Z,17.70
2022-09-25T03:08:17.377Z,17.70
2022-09-25T03:10:48.703Z,17.70
2022-09-25T03:13:20.865Z,17.80
2022-09-25T03:16:01.950Z,17.90
2022-09-25T03:18:33.752Z,17.90
2022-09-25T03:21:05.860Z,18.00
2022-09-25T03:23:36.022Z,18.00
2022-09-25T03:26:09.474Z,18.10
2022-09-25T03:28:39.694Z,18.10
2022-09-25T03:31:13.311Z,18.10
2022-09-25T03:33:45.084Z,18.00
2022-09-25T03:36:23.771Z,18.00
2022-09-25T03:38:59.483Z,17.90
2022-09-25T03:41:33.043Z,17.90
2022-09-25T03:44:03.860Z,17.70
2022-09-25T03:46:37.175Z,17.70
2022-09-25T03:49:08.338Z,17.70
2022-09-25T03:51:38.679Z,17.70
2022-09-25T03:54:09.083Z,17.70
2022-09-25T03:56:39.603Z,17.70
2022-09-25T03:59:09.776Z,17.70
2022-09-25T04:01:40.611Z,17.60
2022-09-25T04:04:10.808Z,17.70
2022-09-25T04:06:41.160Z,17.70
2022-09-25T04:09:11.241Z,17.70
2022-09-25T04:11:41.394Z,17.60
2022-09-25T04:14:14.134Z,17.60
2022-09-25T04:16:44.536Z,17.60
2022-09-25T04:19:15.201Z,17.60
2022-09-25T04:21:45.749Z,17.60
2022-09-25T04:24:34.516Z,17.50
2022-09-25T04:27:05.135Z,17.50
2022-09-25T04:29:37.705Z,17.50
2022-09-25T04:32:26.374Z,17.40
2022-09-25T04:34:56.943Z,17.40
2022-09-25T04:37:31.172Z,17.30
2022-09-25T04:40:01.879Z,17.40
2022-09-25T04:42:32.500Z,17.30
2022-09-25T04:45:03.144Z,17.20
2022-09-25T04:47:33.788Z,17.20
2022-09-25T04:50:04.440Z,17.20
2022-09-25T04:52:35.127Z,17.20
2022-09-25T04:55:06.331Z,17.10
2022-09-25T04:57:57.704Z,17.10
2022-09-25T05:00:33.398Z,17.00
2022-09-25T05:03:06.630Z,17.00
2022-09-25T05:05:37.455Z,17.00
2022-09-25T05:08:08.350Z,16.90
2022-09-25T05:10:41.608Z,16.90
2022-09-25T05:13:14.004Z,16.90
2022-09-25T05:15:44.322Z,16.90
2022-09-25T05:18:24.020Z,16.80
2022-09-25T05:20:58.274Z,16.70
2022-09-25T05:23:28.837Z,16.70
2022-09-25T05:26:05.578Z,16.80
2022-09-25T05:28:35.698Z,16.80
2022-09-25T05:31:07.213Z,16.70
2022-09-25T05:33:38.185Z,16.60
2022-09-25T05:36:09.671Z,16.60
2022-09-25T05:38:41.750Z,16.50
2022-09-25T05:41:13.071Z,16.40
2022-09-25T05:43:46.544Z,16.40
2022-09-25T05:46:17.965Z,16.30
2022-09-25T05:48:48.170Z,16.30
2022-09-25T05:51:18.525Z,16.20
2022-09-25T05:53:49.253Z,16.10
2022-09-25T05:56:19.485Z,16.10
2022-09-25T05:58:50.902Z,16.10
2022-09-25T06:01:21.378Z,16.00
2022-09-25T06:03:51.595Z,15.90
2022-09-25T06:06:26.660Z,15.80
2022-09-25T06:08:58.272Z,15.70
2022-09-25T06:11:28.849Z,15.70
2022-09-25T06:13:59.382Z,15.60
2022-09-25T06:16:29.994Z,15.70
2022-09-25T06:19:00.286Z,15.70
2022-09-25T06:21:30.583Z,15.70
2022-09-25T06:24:00.713Z,15.80
2022-09-25T06:26:31.297Z,15.90
2022-09-25T06:29:03.333Z,16.00
2022-09-25T06:31:34.410Z,16.00
2022-09-25T06:34:04.827Z,15.90
2022-09-25T06:36:35.442Z,15.90
2022-09-25T06:39:06.259Z,15.80
2022-09-25T06:41:37.001Z,15.80
2022-09-25T06:44:08.895Z,15.70
2022-09-25T06:46:39.825Z,15.60
2022-09-25T06:49:10.365Z,15.60
2022-09-25T06:51:42.327Z,15.50
2022-09-25T06:54:13.878Z,15.50
2022-09-25T06:56:45.024Z,15.40
2022-09-25T06:59:17.372Z,15.30
2022-09-25T07:01:47.661Z,15.20
2022-09-25T07:04:17.841Z,15.20
2022-09-25T07:06:48.766Z,15.10
2022-09-25T07:09:18.857Z,15.10
2022-09-25T07:11:50.362Z,14.90
2022-09-25T07:14:20.527Z,14.80
2022-09-25T07:16:50.713Z,14.80
2022-09-25T07:19:23.497Z,14.60
2022-09-25T07:22:04.039Z,14.50
2022-09-25T07:24:35.499Z,14.40
2022-09-25T07:27:06.885Z,14.30
2022-09-25T07:29:37.266Z,14.30
2022-09-25T07:32:07.912Z,14.20
2022-09-25T07:34:39.270Z,14.10
2022-09-25T07:37:09.726Z,14.00
2022-09-25T07:39:39.874Z,13.90
2022-09-25T07:42:10.322Z,13.90
2022-09-25T07:44:45.973Z,13.90
2022-09-25T07:47:18.676Z,13.80
2022-09-25T07:49:49.716Z,13.70
2022-09-25T07:52:20.367Z,13.70
2022-09-25T07:54:51.841Z,13.60
2022-09-25T07:57:22.682Z,13.60
2022-09-25T07:59:53.214Z,13.50
2022-09-25T08:02:25.258Z,13.50
2022-09-25T08:04:56.254Z,13.40
2022-09-25T08:07:26.387Z,13.40
2022-09-25T08:09:56.974Z,13.30
2022-09-25T08:12:27.769Z,13.30
2022-09-25T08:14:58.021Z,13.20
2022-09-25T08:17:33.315Z,13.10
2022-09-25T08:20:04.022Z,13.00
2022-09-25T08:22:35.120Z,13.00
2022-09-25T08:25:06.037Z,12.90
2022-09-25T08:27:45.400Z,12.90
2022-09-25T08:30:15.888Z,12.80
2022-09-25T08:32:46.491Z,12.80
2022-09-25T08:35:18.134Z,12.70
2022-09-25T08:37:50.300Z,12.70
2022-09-25T08:40:23.440Z,12.70
2022-09-25T08:42:55.980Z,12.60
2022-09-25T08:45:57.810Z,12.60
2022-09-25T08:48:55.764Z,12.50
2022-09-25T08:51:25.939Z,12.50
2022-09-25T08:53:56.220Z,12.50
2022-09-25T08:56:29.388Z,12.40
2022-09-25T08:59:05.186Z,12.40
2022-09-25T09:01:56.431Z,12.40
2022-09-25T09:04:35.930Z,12.40
2022-09-25T09:07:29.425Z,12.30
2022-09-25T09:10:08.502Z,12.30
2022-09-25T09:12:44.954Z,12.20
2022-09-25T09:15:51.372Z,12.20
2022-09-25T09:18:27.462Z,12.20
2022-09-25T09:21:25.129Z,12.10
2022-09-25T09:24:18.065Z,12.10
2022-09-25T09:27:05.280Z,12.00
2022-09-25T09:30:05.667Z,12.00
2022-09-25T09:32:51.415Z,11.90
2022-09-25T09:35:54.394Z,11.90
2022-09-25T09:38:46.317Z,11.90
2022-09-25T09:41:33.213Z,11.80
2022-09-25T09:44:05.601Z,11.80
2022-09-25T09:46:48.107Z,11.70
2022-09-25T09:49:31.307Z,11.70
2022-09-25T09:52:18.552Z,11.60
2022-09-25T09:55:07.778Z,11.60
2022-09-25T09:57:48.704Z,11.50
2022-09-25T10:00:22.164Z,11.40
2022-09-25T10:03:07.838Z,11.40
2022-09-25T10:05:52.734Z,11.30
2022-09-25T10:08:37.463Z,11.20
2022-09-25T10:11:22.261Z,11.10
2022-09-25T10:13:52.767Z,11.10
2022-09-25T10:16:26.116Z,11.10
2022-09-25T10:19:05.805Z,11.00
2022-09-25T10:21:59.825Z,11.00
2022-09-25T10:24:54.810Z,10.90
2022-09-25T10:27:30.713Z,10.90
2022-09-25T10:30:14.055Z,10.80
2022-09-25T10:33:02.817Z,10.80
2022-09-25T10:35:47.551Z,10.80
2022-09-25T10:38:56.675Z,10.70
2022-09-25T10:41:45.708Z,10.70
2022-09-25T10:44:36.870Z,10.60
2022-09-25T10:47:40.924Z,10.60
2022-09-25T10:50:27.751Z,10.50
2022-09-25T10:53:02.317Z,10.50
2022-09-25T10:55:37.187Z,10.50
2022-09-25T10:58:13.201Z,10.40
2022-09-25T11:01:04.563Z,10.40
2022-09-25T11:03:41.655Z,10.30
2022-09-25T11:06:22.886Z,10.20
2022-09-25T11:09:04.810Z,10.30
2022-09-25T11:11:36.323Z,10.20
2022-09-25T11:14:10.436Z,10.10
2022-09-25T11:16:53.068Z,10.00
2022-09-25T11:19:37.400Z,10.00
2022-09-25T11:22:20.199Z,9.90
2022-09-25T11:25:08.871Z,9.90
2022-09-25T11:27:42.394Z,9.80
2022-09-25T11:30:34.143Z,9.70
2022-09-25T11:33:26.219Z,9.70
2022-09-25T11:36:22.533Z,9.60
2022-09-25T11:39:22.325Z,9.60
2022-09-25T11:42:09.138Z,9.50
2022-09-25T11:45:02.053Z,9.50
2022-09-25T11:48:09.135Z,9.50
2022-09-25T11:51:02.143Z,9.40
2022-09-25T11:54:07.269Z,9.40
2022-09-25T11:56:55.663Z,9.40
2022-09-25T11:59:44.848Z,9.30
2022-09-25T12:02:34.160Z,9.20
2022-09-25T12:05:34.309Z,9.20
2022-09-25T12:08:29.417Z,9.10
2022-09-25T12:11:09.589Z,9.00
2022-09-25T12:13:57.336Z,9.00
2022-09-25T12:16:48.362Z,8.90
2022-09-25T12:19:46.221Z,8.90
2022-09-25T12:22:40.681Z,8.80
2022-09-25T12:25:28.961Z,8.80
2022-09-25T12:28:11.498Z,8.70
2022-09-25T12:31:05.240Z,8.70
2022-09-25T12:33:40.478Z,8.70
2022-09-25T12:36:27.540Z,8.70
2022-09-25T12:39:07.239Z,8.60
2022-09-25T12:41:47.961Z,8.60
2022-09-25T12:44:48.359Z,8.50
2022-09-25T12:47:45.970Z,8.50
2022-09-25T12:50:21.434Z,8.40
2022-09-25T12:53:31.079Z,8.50
2022-09-25T12:56:44.678Z,8.40
2022-09-25T12:59:44.040Z,8.30
2022-09-25T13:02:46.817Z,8.20
2022-09-25T13:05:23.062Z,8.20
2022-09-25T13:08:29.334Z,8.10
2022-09-25T13:11:43.813Z,8.10
2022-09-25T13:14:44.432Z,8.00
2022-09-25T13:17:18.320Z,8.00
2022-09-25T13:19:48.661Z,8.00
2022-09-25T13:22:27.480Z,8.00
2022-09-25T13:25:15.547Z,8.00
2022-09-25T13:27:51.246Z,8.00
2022-09-25T13:30:27.259Z,7.90
2022-09-25T13:33:05.023Z,7.90
2022-09-25T13:35:38.144Z,7.90
2022-09-25T13:38:42.753Z,7.90
2022-09-25T13:41:15.695Z,7.80
2022-09-25T13:43:46.462Z,7.80
2022-09-25T13:46:25.264Z,7.80
2022-09-25T13:49:15.408Z,7.80
2022-09-25T13:51:50.161Z,7.70
2022-09-25T13:54:34.977Z,7.80
2022-09-25T13:57:05.446Z,7.70
2022-09-25T13:59:40.478Z,7.70
2022-09-25T14:02:40.607Z,7.70
2022-09-25T14:05:18.046Z,7.60
2022-09-25T14:07:54.676Z,7.60
2022-09-25T14:10:26.609Z,7.60
2022-09-25T14:12:57.938Z,7.50
2022-09-25T14:15:37.137Z,7.50
2022-09-25T14:18:16.013Z,7.50
2022-09-25T14:20:50.079Z,7.50
2022-09-25T14:23:28.891Z,7.50
2022-09-25T14:26:08.953Z,7.40
2022-09-25T14:28:50.547Z,7.40
2022-09-25T14:31:54.138Z,7.40
2022-09-25T14:34:31.527Z,7.40
2022-09-25T14:37:30.386Z,7.40
2022-09-25T14:40:37.413Z,7.40
2022-09-25T14:43:20.317Z,7.40
2022-09-25T14:46:20.146Z,7.30
2022-09-25T14:49:10.399Z,7.40
2022-09-25T14:51:46.601Z,7.40
2022-09-25T14:54:28.467Z,7.40
2022-09-25T14:57:01.807Z,7.40
2022-09-25T14:59:41.177Z,7.40
2022-09-25T15:02:36.124Z,7.30
2022-09-25T15:05:25.451Z,7.30
2022-09-25T15:07:59.384Z,7.30
2022-09-25T15:10:45.389Z,7.30
2022-09-25T15:13:23.811Z,7.30
2022-09-25T15:16:18.257Z,7.20
2022-09-25T15:18:55.895Z,7.10
2022-09-25T15:21:33.002Z,7.10
2022-09-25T15:24:06.830Z,7.10
2022-09-25T15:26:48.809Z,7.10
2022-09-25T15:29:23.027Z,7.10
2022-09-25T15:31:54.572Z,7.10
2022-09-25T15:34:34.893Z,7.00
2022-09-25T15:37:19.688Z,7.10
2022-09-25T15:39:50.127Z,7.10
2022-09-25T15:42:20.544Z,7.10
2022-09-25T15:44:51.785Z,7.10
2022-09-25T15:47:40.065Z,7.10
2022-09-25T15:50:24.310Z,7.10
2022-09-25T15:53:00.766Z,7.20
2022-09-25T15:55:34.753Z,7.20
2022-09-25T15:58:15.425Z,7.20
2022-09-25T16:01:20.570Z,7.20
2022-09-25T16:04:14.191Z,7.30
2022-09-25T16:06:47.140Z,7.20
2022-09-25T16:09:29.841Z,7.20
2022-09-25T16:12:27.233Z,7.20
2022-09-25T16:14:59.325Z,7.20
2022-09-25T16:17:43.160Z,7.10
2022-09-25T16:20:35.645Z,7.10
2022-09-25T16:23:30.650Z,7.10
2022-09-25T16:26:01.677Z,7.10
2022-09-25T16:28:39.301Z,7.10
2022-09-25T16:31:12.756Z,7.00
2022-09-25T16:33:56.142Z,7.00
2022-09-25T16:36:29.571Z,7.00
2022-09-25T16:39:12.080Z,7.00
2022-09-25T16:41:51.025Z,6.90
2022-09-25T16:44:43.872Z,6.90
2022-09-25T16:47:21.558Z,6.90
2022-09-25T16:49:52.095Z,6.90
2022-09-25T16:52:28.128Z,6.90
2022-09-25T16:55:00.838Z,6.90
2022-09-25T16:57:33.799Z,6.90
2022-09-25T17:00:05.648Z,6.90
2022-09-25T17:02:40.223Z,6.90
2022-09-25T17:05:28.205Z,6.90
2022-09-25T17:08:02.171Z,7.00
2022-09-25T17:10:34.382Z,7.00
2022-09-25T17:13:06.788Z,7.00
2022-09-25T17:15:38.538Z,7.00
2022-09-25T17:18:19.017Z,7.10
2022-09-25T17:20:52.138Z,7.10
2022-09-25T17:23:27.920Z,7.00
2022-09-25T17:26:03.419Z,7.10
2022-09-25T17:28:35.011Z,7.00
2022-09-25T17:31:06.545Z,7.00
2022-09-25T17:33:36.759Z,7.00
2022-09-25T17:36:09.494Z,7.00
2022-09-25T17:38:40.203Z,7.00
2022-09-25T17:41:22.452Z,6.90
2022-09-25T17:43:54.296Z,6.90
2022-09-25T17:46:25.035Z,6.90
2022-09-25T17:48:59.093Z,6.90
2022-09-25T17:51:31.539Z,6.90
2022-09-25T17:54:04.505Z,6.80
2022-09-25T17:56:36.473Z,6.80
2022-09-25T17:59:06.910Z,6.90
2022-09-25T18:01:39.667Z,6.90
2022-09-25T18:04:27.773Z,6.90
2022-09-25T18:06:58.458Z,6.90
2022-09-25T18:09:28.654Z,6.90
2022-09-25T18:11:58.820Z,6.90
2022-09-25T18:14:31.997Z,6.90
2022-09-25T18:17:02.192Z,7.00
2022-09-25T18:19:50.271Z,7.10
2022-09-25T18:22:26.955Z,7.10
2022-09-25T18:25:00.435Z,7.10
2022-09-25T18:27:36.388Z,7.20
2022-09-25T18:30:07.398Z,7.20
2022-09-25T18:32:37.762Z,7.20
2022-09-25T18:35:09.100Z,7.20
2022-09-25T18:37:42.164Z,7.20
2022-09-25T18:40:14.327Z,7.20
2022-09-25T18:42:44.640Z,7.20
2022-09-25T18:45:17.909Z,7.20
2022-09-25T18:47:48.943Z,7.30
2022-09-25T18:50:20.888Z,7.30
2022-09-25T18:52:55.024Z,7.40
2022-09-25T18:55:25.702Z,7.40
2022-09-25T18:57:57.484Z,7.40
2022-09-25T19:00:31.557Z,7.40
2022-09-25T19:03:01.947Z,7.40
2022-09-25T19:05:33.153Z,7.40
2022-09-25T19:08:05.109Z,7.40
2022-09-25T19:10:38.332Z,7.40
2022-09-25T19:13:08.885Z,7.40
2022-09-25T19:15:40.525Z,7.30
2022-09-25T19:18:11.240Z,7.30
2022-09-25T19:20:49.865Z,7.30
2022-09-25T19:23:21.310Z,7.40
2022-09-25T19:26:04.347Z,7.40
2022-09-25T19:28:37.033Z,7.40
2022-09-25T19:31:10.347Z,7.40
2022-09-25T19:33:41.125Z,7.40
2022-09-25T19:36:18.707Z,7.40
2022-09-25T19:38:49.982Z,7.40
2022-09-25T19:41:25.021Z,7.40
2022-09-25T19:43:58.972Z,7.40
2022-09-25T19:46:33.982Z,7.40
2022-09-25T19:49:04.529Z,7.40
2022-09-25T19:51:35.253Z,7.50
2022-09-25T19:54:06.784Z,7.50
2022-09-25T19:56:43.944Z,7.60
2022-09-25T19:59:21.464Z,7.60
2022-09-25T20:01:51.698Z,7.60
2022-09-25T20:04:22.053Z,7.70
2022-09-25T20:06:52.345Z,7.70
2022-09-25T20:09:25.836Z,7.80
2022-09-25T20:11:56.424Z,7.80
2022-09-25T20:14:29.308Z,7.90
2022-09-25T20:16:59.449Z,7.90
2022-09-25T20:19:29.669Z,7.90
2022-09-25T20:21:59.816Z,8.00
2022-09-25T20:24:29.971Z,8.00
2022-09-25T20:27:00.064Z,8.10
2022-09-25T20:29:33.158Z,8.10
2022-09-25T20:32:03.481Z,8.20
2022-09-25T20:34:33.606Z,8.20
2022-09-25T20:37:05.322Z,8.20
2022-09-25T20:39:35.431Z,8.30
2022-09-25T20:42:07.447Z,8.40
2022-09-25T20:44:42.250Z,8.40
2022-09-25T20:47:20.189Z,8.40
2022-09-25T20:49:51.062Z,8.40
2022-09-25T20:52:21.273Z,8.50
2022-09-25T20:54:51.511Z,8.50
2022-09-25T20:57:22.095Z,8.60
2022-09-25T20:59:54.853Z,8.60
2022-09-25T21:02:26.496Z,8.70
2022-09-25T21:04:59.735Z,8.80
2022-09-25T21:07:29.994Z,8.70
2022-09-25T21:10:00.236Z,8.80
2022-09-25T21:12:31.068Z,8.80
2022-09-25T21:15:01.311Z,8.80
2022-09-25T21:17:31.501Z,8.80
2022-09-25T21:20:02.101Z,8.80
2022-09-25T21:22:32.346Z,8.80
2022-09-25T21:25:02.589Z,8.80
2022-09-25T21:27:33.435Z,8.80
2022-09-25T21:30:09.789Z,8.70
2022-09-25T21:32:42.411Z,8.80
2022-09-25T21:35:13.146Z,8.90
2022-09-25T21:37:43.503Z,9.00
2022-09-25T21:40:17.232Z,9.10
2022-09-25T21:42:48.103Z,9.20
2022-09-25T21:45:19.879Z,9.30
2022-09-25T21:47:52.760Z,9.40
2022-09-25T21:50:23.418Z,9.60
2022-09-25T21:52:58.257Z,9.70
2022-09-25T21:55:30.504Z,9.80
2022-09-25T21:58:01.502Z,9.90
2022-09-25T22:00:40.133Z,10.00
2022-09-25T22:03:18.154Z,10.10
2022-09-25T22:05:52.257Z,10.20
2022-09-25T22:08:42.984Z,10.40
2022-09-25T22:11:15.069Z,10.50
2022-09-25T22:13:49.973Z,10.60
2022-09-25T22:16:37.778Z,10.70
2022-09-25T22:19:29.946Z,10.80
2022-09-25T22:22:01.583Z,11.00
2022-09-25T22:24:31.732Z,11.10
2022-09-25T22:27:01.948Z,11.20
2022-09-25T22:29:32.919Z,11.30
2022-09-25T22:32:03.294Z,11.40
2022-09-25T22:34:37.232Z,11.50
2022-09-25T22:37:07.516Z,11.70
2022-09-25T22:39:37.779Z,11.80
2022-09-25T22:42:08.199Z,12.00
2022-09-25T22:44:38.439Z,12.00
2022-09-25T22:47:08.664Z,12.10
2022-09-25T22:49:39.475Z,12.10
2022-09-25T22:52:19.879Z,12.10
2022-09-25T22:55:02.466Z,12.30
2022-09-25T22:57:46.234Z,12.40
2022-09-25T23:00:18.399Z,12.50
2022-09-25T23:02:49.129Z,12.40
2022-09-25T23:05:19.628Z,12.50
2022-09-25T23:07:51.337Z,12.60
2022-09-25T23:10:21.615Z,12.70
2022-09-25T23:12:52.096Z,12.80
2022-09-25T23:15:25.482Z,13.00
2022-09-25T23:17:55.955Z,13.10
2022-09-25T23:20:28.261Z,13.30
2022-09-25T23:22:59.083Z,13.30
2022-09-25T23:25:29.237Z,13.50
2022-09-25T23:27:59.351Z,13.70
2022-09-25T23:30:30.066Z,13.80
2022-09-25T23:33:00.401Z,13.90
2022-09-25T23:35:30.657Z,14.00
2022-09-25T23:38:01.355Z,14.00
2022-09-25T23:40:31.640Z,14.10
2022-09-25T23:43:03.536Z,14.20
2022-09-25T23:45:34.232Z,14.30
2022-09-25T23:48:04.589Z,14.50
2022-09-25T23:50:34.719Z,14.60
2022-09-25T23:53:04.973Z,14.70
2022-09-25T23:55:35.217Z,14.80
2022-09-25T23:58:05.857Z,15.00
